Tweed New Haven Airport
KHVN : now visible

Airfield :











YOU CAN JOIN US ON...

 
LOGIN :

Register | Disclaimer

   EN    FR    IT 

 









Legend :    VFR   Marginal VFR   IFR   Intensive IFR   Very Intensive IFR
Visi :
Ceiling :
>= 8 km
>= 3000ft
5 to 8 km
1000 to 3000 ft
1500m to 5 km
500 to 1000 ft
800 to 1500m
200 to 500 ft
< 800m
< 200 ft
Symbols :   Thunderstorms  Fog  Heavy snow  Heavy precipitations  Wind > 20 kt






- Airport Elevation : 12 ft
- IATA code : HVN


KHVN - Tweed New Haven

CURRENT METAR :
  • 201153Z 31006KT 10SM BKN250 M02/M10 A3045 RMK AO2 SLP309 T10171100 11011 21022 51015

EXPIRED METARs :
  • 201053Z 31006KT 10SM CLR M02/M10 A3044 RMK AO2 SLP306 T10171100
  • 200953Z AUTO 33004KT 10SM CLR M02/M11 A3042 RMK AO2 SLP300 T10171106
  • 200853Z AUTO 28003KT 10SM CLR M01/M11 A3040 RMK AO2 SLP295 T10111106 53007

TAF N/A



MET'MAP, your aeronautical weather chart ! - Copyright ORBIFLY December 2007 - Disclaimer

ORBIFLY MET'MAP TEAM :

Programming & Development : Alexandra Zaïnal
Concept & original design : Baudouin d'Aumeries
Assistance for programming : Marc-Olivier Méhu
Technical & hardware support : Manuel Goepfert

Contact : metmap@orbifly.com




SOURCES & CREDITS :

   NOAA       Earth
Advisory